createdAt,value
2022-11-26T00:00:19.454Z,101254.22
2022-11-26T00:02:51.847Z,101256.47
2022-11-26T00:05:21.200Z,101271.34
2022-11-26T00:07:58.571Z,101268.59
2022-11-26T00:10:28.768Z,101268.94
2022-11-26T00:12:59.120Z,101262.38
2022-11-26T00:15:29.449Z,101267.78
2022-11-26T00:17:57.928Z,101269.59
2022-11-26T00:20:35.760Z,101273.09
2022-11-26T00:23:05.545Z,101281.16
2022-11-26T00:25:46.090Z,101273.03
2022-11-26T00:28:33.666Z,101276.44
2022-11-26T00:31:08.656Z,101274.78
2022-11-26T00:33:36.718Z,101290.34
2022-11-26T00:36:19.593Z,101282.31
2022-11-26T00:38:52.140Z,101288.09
2022-11-26T00:41:23.097Z,101290.84
2022-11-26T00:43:53.840Z,101295.53
2022-11-26T00:46:23.369Z,101300.16
2022-11-26T00:48:52.360Z,101307.38
2022-11-26T00:51:28.913Z,101306.16
2022-11-26T00:54:01.468Z,101305.88
2022-11-26T00:56:32.687Z,101310.47
2022-11-26T00:59:07.702Z,101320.50
2022-11-26T01:01:38.165Z,101319.78
2022-11-26T01:04:08.049Z,101322.38
2022-11-26T01:06:40.856Z,101315.38
2022-11-26T01:09:21.683Z,101325.41
2022-11-26T01:11:56.813Z,101328.31
2022-11-26T01:14:29.557Z,101336.78
2022-11-26T01:17:04.454Z,101339.75
2022-11-26T01:19:35.627Z,101338.94
2022-11-26T01:22:08.303Z,101343.47
2022-11-26T01:24:38.917Z,101343.47
2022-11-26T01:27:12.758Z,101336.91
2022-11-26T01:29:42.638Z,101344.69
2022-11-26T01:32:11.992Z,101346.44
2022-11-26T01:34:42.852Z,101343.38
2022-11-26T01:37:15.555Z,101344.94
2022-11-26T01:39:45.211Z,101357.13
2022-11-26T01:42:38.823Z,101359.00
2022-11-26T01:45:23.307Z,101365.34
2022-11-26T01:47:56.971Z,101362.59
2022-11-26T01:50:36.867Z,101363.59
2022-11-26T01:53:17.028Z,101360.09
2022-11-26T01:56:12.805Z,101360.09
2022-11-26T01:58:45.812Z,101364.66
2022-11-26T02:01:14.152Z,101371.06
2022-11-26T02:03:55.769Z,101368.53
2022-11-26T02:06:28.768Z,101354.97
2022-11-26T02:08:56.970Z,101356.84
2022-11-26T02:11:27.374Z,101364.66
2022-11-26T02:14:06.813Z,101370.31
2022-11-26T02:16:53.994Z,101373.91
2022-11-26T02:19:48.906Z,101362.78
2022-11-26T02:23:02.320Z,101365.91
2022-11-26T02:25:42.045Z,101370.31
2022-11-26T02:28:39.841Z,101363.28
2022-11-26T02:31:50.583Z,101375.81
2022-11-26T02:34:45.503Z,101371.31
2022-11-26T02:37:30.744Z,101376.59
2022-11-26T02:39:59.443Z,101373.09
2022-11-26T02:42:30.596Z,101376.38
2022-11-26T02:45:03.076Z,101383.59
2022-11-26T02:47:33.057Z,101380.97
2022-11-26T02:50:05.898Z,101377.63
2022-11-26T02:52:35.383Z,101386.72
2022-11-26T02:55:06.302Z,101380.47
2022-11-26T02:57:40.642Z,101391.16
2022-11-26T03:00:09.320Z,101389.50
2022-11-26T03:02:47.244Z,101392.91
2022-11-26T03:05:18.800Z,101391.06
2022-11-26T03:07:52.894Z,101398.44
2022-11-26T03:10:28.286Z,101399.25
2022-11-26T03:12:56.026Z,101402.00
2022-11-26T03:15:24.184Z,101406.91
2022-11-26T03:17:51.847Z,101408.97
2022-11-26T03:20:21.132Z,101409.97
2022-11-26T03:22:48.556Z,101409.88
2022-11-26T03:25:16.027Z,101421.38
2022-11-26T03:27:43.575Z,101412.31
2022-11-26T03:30:11.743Z,101418.41
2022-11-26T03:32:39.373Z,101408.66
2022-11-26T03:35:07.585Z,101412.03
2022-11-26T03:37:35.563Z,101414.78
2022-11-26T03:40:03.278Z,101415.72
2022-11-26T03:42:31.134Z,101416.28
2022-11-26T03:44:58.823Z,101422.72
2022-11-26T03:47:27.548Z,101426.38
2022-11-26T03:49:55.598Z,101433.63
2022-11-26T03:52:23.242Z,101433.50
2022-11-26T03:54:50.789Z,101437.59
2022-11-26T03:57:18.568Z,101446.75
2022-11-26T03:59:46.079Z,101434.09
2022-11-26T04:02:13.659Z,101452.19
2022-11-26T04:04:41.424Z,101449.31
2022-11-26T04:07:08.960Z,101440.81
2022-11-26T04:09:37.044Z,101438.81
2022-11-26T04:12:04.910Z,101433.47
2022-11-26T04:14:32.534Z,101438.13
2022-11-26T04:17:00.871Z,101434.50
2022-11-26T04:19:28.752Z,101437.25
2022-11-26T04:21:56.470Z,101433.19
2022-11-26T04:24:25.095Z,101433.88
2022-11-26T04:26:52.743Z,101435.22
2022-11-26T04:29:20.678Z,101444.00
2022-11-26T04:31:48.143Z,101437.31
2022-11-26T04:34:15.700Z,101436.22
2022-11-26T04:36:43.130Z,101448.00
2022-11-26T04:39:11.508Z,101446.69
2022-11-26T04:41:39.287Z,101454.53
2022-11-26T04:44:06.957Z,101460.50
2022-11-26T04:46:34.514Z,101466.28
2022-11-26T04:49:02.265Z,101461.53
2022-11-26T04:51:29.754Z,101467.75
2022-11-26T04:54:00.437Z,101473.16
2022-11-26T04:56:30.294Z,101475.66
2022-11-26T04:58:57.615Z,101474.31
2022-11-26T05:01:25.319Z,101472.38
2022-11-26T05:03:52.880Z,101482.88
2022-11-26T05:06:20.464Z,101483.81
2022-11-26T05:08:47.934Z,101485.28
2022-11-26T05:11:15.312Z,101486.31
2022-11-26T05:13:43.132Z,101494.97
2022-11-26T05:16:10.743Z,101496.28
2022-11-26T05:18:38.280Z,101496.09
2022-11-26T05:21:06.746Z,101504.34
2022-11-26T05:23:34.365Z,101517.25
2022-11-26T05:26:01.798Z,101519.66
2022-11-26T05:28:29.213Z,101521.91
2022-11-26T05:31:01.786Z,101522.81
2022-11-26T05:33:29.483Z,101522.81
2022-11-26T05:35:56.936Z,101529.06
2022-11-26T05:38:24.552Z,101507.69
2022-11-26T05:40:52.548Z,101484.03
2022-11-26T05:43:19.985Z,101485.13
2022-11-26T05:45:47.514Z,101483.38
2022-11-26T05:48:15.150Z,101490.53
2022-11-26T05:50:42.809Z,101480.59
2022-11-26T05:53:10.396Z,101483.44
2022-11-26T05:55:38.306Z,101488.03
2022-11-26T05:58:05.871Z,101489.94
2022-11-26T06:00:34.309Z,101484.69
2022-11-26T06:03:02.526Z,101489.22
2022-11-26T06:05:29.913Z,101483.88
2022-11-26T06:07:57.285Z,101494.63
2022-11-26T06:10:25.159Z,101534.13
2022-11-26T06:12:52.580Z,101529.59
2022-11-26T06:15:20.188Z,101535.06
2022-11-26T06:17:47.549Z,101524.06
2022-11-26T06:20:15.277Z,101518.34
2022-11-26T06:22:43.749Z,101507.91
2022-11-26T06:25:14.261Z,101505.44
2022-11-26T06:27:42.414Z,101497.25
2022-11-26T06:30:11.526Z,101500.34
2022-11-26T06:32:38.987Z,101518.19
2022-11-26T06:35:06.605Z,101507.91
2022-11-26T06:37:33.793Z,101502.22
2022-11-26T06:40:00.902Z,101501.63
2022-11-26T06:42:29.760Z,101493.91
2022-11-26T06:44:59.765Z,101488.38
2022-11-26T06:47:27.833Z,101488.66
2022-11-26T06:49:55.494Z,101483.38
2022-11-26T06:52:22.759Z,101487.00
2022-11-26T06:54:50.464Z,101473.66
2022-11-26T06:57:17.827Z,101479.16
2022-11-26T06:59:45.208Z,101476.94
2022-11-26T07:05:17.907Z,101474.31
2022-11-26T07:07:45.261Z,101468.41
2022-11-26T07:10:13.047Z,101469.63
2022-11-26T07:12:40.441Z,101465.84
2022-11-26T07:15:08.499Z,101467.22
2022-11-26T07:17:35.814Z,101476.78
2022-11-26T07:20:03.307Z,101482.63
2022-11-26T07:22:32.834Z,101474.94
2022-11-26T07:25:01.412Z,101471.69
2022-11-26T07:27:28.850Z,101455.41
2022-11-26T07:29:56.444Z,101454.59
2022-11-26T07:32:23.906Z,101458.84
2022-11-26T07:34:51.597Z,101455.47
2022-11-26T07:37:19.368Z,101452.78
2022-11-26T07:39:47.764Z,101451.84
2022-11-26T07:42:15.225Z,101446.69
2022-11-26T07:44:42.868Z,101444.84
2022-11-26T07:47:10.158Z,101446.97
2022-11-26T07:49:37.608Z,101441.03
2022-11-26T07:52:05.238Z,101445.84
2022-11-26T07:54:32.453Z,101457.09
2022-11-26T07:56:59.753Z,101449.91
2022-11-26T07:59:27.459Z,101458.00
2022-11-26T08:01:55.208Z,101449.16
2022-11-26T08:04:23.547Z,101454.22
2022-11-26T08:06:51.278Z,101461.41
2022-11-26T08:09:19.161Z,101461.69
2022-11-26T08:11:47.727Z,101466.41
2022-11-26T08:14:15.400Z,101468.03
2022-11-26T08:16:42.879Z,101454.31
2022-11-26T08:19:14.546Z,101429.66
2022-11-26T08:21:42.030Z,101430.00
2022-11-26T08:24:14.653Z,101414.59
2022-11-26T08:26:44.359Z,101392.63
2022-11-26T08:29:13.296Z,101372.97
2022-11-26T08:31:45.982Z,101362.53
2022-11-26T08:34:15.678Z,101356.59
2022-11-26T08:36:44.717Z,101352.78
2022-11-26T08:42:05.541Z,101331.31
2022-11-26T08:47:29.205Z,101312.72
2022-11-26T08:49:59.311Z,101309.16
2022-11-26T08:52:28.504Z,101317.16
2022-11-26T08:55:13.076Z,101305.06
2022-11-26T08:57:42.444Z,101291.47
2022-11-26T09:00:13.297Z,101292.06
2022-11-26T09:02:42.788Z,101275.69
2022-11-26T09:05:11.592Z,101266.13
2022-11-26T09:07:46.408Z,101254.53
2022-11-26T09:10:17.367Z,101246.59
2022-11-26T09:12:46.000Z,101238.69
2022-11-26T09:15:15.535Z,101241.91
2022-11-26T09:17:45.036Z,101231.06
2022-11-26T09:29:00.287Z,101230.44
2022-11-26T09:31:29.206Z,101231.66
2022-11-26T09:34:04.051Z,101243.41
2022-11-26T09:36:33.320Z,101249.03
2022-11-26T09:39:03.192Z,101254.22
2022-11-26T09:41:57.980Z,101256.97
2022-11-26T09:45:03.586Z,101249.28
2022-11-26T09:47:44.013Z,101251.97
2022-11-26T09:50:17.404Z,101256.44
2022-11-26T09:53:07.823Z,101263.00
2022-11-26T09:55:39.169Z,101253.94
2022-11-26T09:58:30.728Z,101265.34
2022-11-26T10:01:01.245Z,101261.59
2022-11-26T10:03:35.000Z,101258.06
2022-11-26T10:06:32.685Z,101246.63
2022-11-26T10:09:17.754Z,101254.59
2022-11-26T10:12:01.320Z,101261.28
2022-11-26T10:14:46.852Z,101254.34
2022-11-26T10:17:32.396Z,101246.47
2022-11-26T10:20:18.422Z,101244.09
2022-11-26T10:22:57.382Z,101251.47
2022-11-26T10:25:29.563Z,101240.03
2022-11-26T10:27:59.604Z,101236.16
2022-11-26T10:30:29.604Z,101224.22
2022-11-26T10:33:01.868Z,101225.81
2022-11-26T10:35:31.553Z,101220.66
2022-11-26T10:37:59.637Z,101207.16
2022-11-26T10:40:30.138Z,101210.41
2022-11-26T10:43:10.777Z,101198.22
2022-11-26T10:45:39.934Z,101194.56
2022-11-26T10:48:25.586Z,101200.94
2022-11-26T10:57:56.102Z,101206.19
2022-11-26T11:00:42.862Z,101219.25
2022-11-26T11:03:38.179Z,101208.16
2022-11-26T11:06:21.645Z,101202.69
2022-11-26T11:08:53.425Z,101206.94
2022-11-26T11:11:31.443Z,101193.34
2022-11-26T11:13:58.684Z,101208.97
2022-11-26T11:16:29.221Z,101227.44
2022-11-26T11:19:03.097Z,101226.75
2022-11-26T11:21:36.641Z,101239.53
2022-11-26T11:24:09.598Z,101232.16
2022-11-26T11:26:43.491Z,101229.47
2022-11-26T11:29:26.541Z,101227.00
2022-11-26T11:31:54.024Z,101231.22
2022-11-26T11:34:28.327Z,101225.13
2022-11-26T11:37:04.665Z,101216.97
2022-11-26T11:39:36.827Z,101211.22
2022-11-26T11:42:26.123Z,101222.00
2022-11-26T11:47:57.879Z,101224.50
2022-11-26T11:50:42.838Z,101217.34
2022-11-26T11:53:23.614Z,101218.19
2022-11-26T11:56:06.136Z,101212.84
2022-11-26T11:58:58.135Z,101198.22
2022-11-26T12:01:47.736Z,101204.06
2022-11-26T12:04:33.746Z,101205.00
2022-11-26T12:07:26.718Z,101209.84
2022-11-26T12:10:01.449Z,101234.53
2022-11-26T12:12:46.613Z,101217.19
2022-11-26T12:15:30.805Z,101219.72
2022-11-26T12:18:23.097Z,101220.16
2022-11-26T12:20:58.979Z,101206.63
2022-11-26T12:24:02.075Z,101207.94
2022-11-26T12:27:26.917Z,101182.53
2022-11-26T12:30:01.859Z,101182.47
2022-11-26T12:32:46.329Z,101175.63
2022-11-26T12:35:26.152Z,101173.19
2022-11-26T12:38:00.094Z,101187.59
2022-11-26T12:41:14.512Z,101184.28
2022-11-26T12:44:03.740Z,101191.88
2022-11-26T12:46:53.024Z,101177.66
2022-11-26T12:49:36.937Z,101189.97
2022-11-26T12:52:14.882Z,101192.38
2022-11-26T12:55:04.819Z,101197.00
2022-11-26T12:57:50.354Z,101204.44
2022-11-26T13:00:31.390Z,101204.13
2022-11-26T13:03:06.715Z,101199.47
2022-11-26T13:06:31.347Z,101200.94
2022-11-26T13:09:15.636Z,101204.72
2022-11-26T13:11:54.227Z,101200.88
2022-11-26T13:14:53.144Z,101204.28
2022-11-26T13:17:42.467Z,101192.16
2022-11-26T13:20:37.407Z,101203.81
2022-11-26T13:23:38.697Z,101198.94
2022-11-26T13:26:25.395Z,101205.56
2022-11-26T13:29:05.228Z,101212.00
2022-11-26T13:32:12.757Z,101212.28
2022-11-26T13:35:15.073Z,101214.66
2022-11-26T13:38:25.380Z,101222.38
2022-11-26T13:41:36.869Z,101213.06
2022-11-26T13:44:36.966Z,101223.44
2022-11-26T13:47:15.096Z,101230.97
2022-11-26T13:50:19.134Z,101237.97
2022-11-26T13:53:00.610Z,101237.44
2022-11-26T13:56:06.085Z,101256.59
2022-11-26T13:58:47.022Z,101264.38
2022-11-26T14:01:55.101Z,101271.88
2022-11-26T14:04:23.916Z,101273.78
2022-11-26T14:10:03.629Z,101275.59
2022-11-26T14:13:03.575Z,101268.94
2022-11-26T14:15:47.877Z,101280.72
2022-11-26T14:18:54.323Z,101284.44
2022-11-26T14:21:26.200Z,101282.91
2022-11-26T14:24:03.484Z,101283.47
2022-11-26T14:26:45.743Z,101285.38
2022-11-26T14:29:27.945Z,101281.50
2022-11-26T14:32:01.585Z,101282.88
2022-11-26T14:34:53.752Z,101292.00
2022-11-26T14:37:34.240Z,101296.31
2022-11-26T14:40:10.903Z,101294.00
2022-11-26T14:42:43.598Z,101295.34
2022-11-26T14:45:25.749Z,101302.34
2022-11-26T14:48:07.722Z,101302.13
2022-11-26T14:50:43.026Z,101316.66
2022-11-26T14:53:21.823Z,101315.81
2022-11-26T14:55:57.419Z,101316.81
2022-11-26T14:58:42.124Z,101322.94
2022-11-26T15:01:13.110Z,101323.28
2022-11-26T15:12:28.775Z,101327.53
2022-11-26T15:15:18.075Z,101332.28
2022-11-26T15:17:57.427Z,101340.66
2022-11-26T15:20:31.555Z,101335.47
2022-11-26T15:23:18.696Z,101332.22
2022-11-26T15:26:09.964Z,101344.31
2022-11-26T15:33:00.631Z,101332.38
2022-11-26T15:35:32.582Z,101340.81
2022-11-26T15:38:06.046Z,101340.66
2022-11-26T15:41:05.567Z,101334.53
2022-11-26T15:44:07.167Z,101342.16
2022-11-26T15:46:47.497Z,101333.25
2022-11-26T15:49:30.789Z,101333.50
2022-11-26T15:52:12.357Z,101330.22
2022-11-26T15:55:15.101Z,101335.47
2022-11-26T15:57:54.626Z,101331.75
2022-11-26T16:00:25.518Z,101332.13
2022-11-26T16:06:10.999Z,101336.97
2022-11-26T16:11:41.023Z,101347.34
2022-11-26T16:14:49.444Z,101352.59
2022-11-26T16:17:28.209Z,101345.59
2022-11-26T16:20:04.175Z,101351.00
2022-11-26T16:22:35.337Z,101358.63
2022-11-26T16:25:07.916Z,101363.28
2022-11-26T16:27:50.336Z,101360.66
2022-11-26T16:30:22.166Z,101361.50
2022-11-26T16:32:54.218Z,101370.41
2022-11-26T16:35:45.114Z,101364.13
2022-11-26T16:38:28.550Z,101360.38
2022-11-26T16:41:11.931Z,101361.44
2022-11-26T16:43:47.356Z,101366.91
2022-11-26T16:46:28.519Z,101358.78
2022-11-26T16:48:59.652Z,101359.91
2022-11-26T16:51:42.593Z,101368.72
2022-11-26T16:54:17.325Z,101362.94
2022-11-26T16:56:59.662Z,101365.78
2022-11-26T16:59:32.645Z,101368.38
2022-11-26T17:02:22.533Z,101361.19
2022-11-26T17:08:02.836Z,101350.97
2022-11-26T17:13:59.453Z,101348.09
2022-11-26T17:19:32.296Z,101366.88
2022-11-26T17:25:19.693Z,101358.50
2022-11-26T17:30:57.164Z,101360.78
2022-11-26T17:33:37.985Z,101354.91
2022-11-26T17:42:37.007Z,101360.53
2022-11-26T17:45:16.767Z,101361.97
2022-11-26T17:53:30.989Z,101355.84
2022-11-26T17:56:21.596Z,101346.06
2022-11-26T18:02:50.824Z,101340.28
2022-11-26T18:05:25.737Z,101336.16
2022-11-26T18:08:28.805Z,101334.06
2022-11-26T18:17:08.719Z,101314.06
2022-11-26T18:19:46.695Z,101321.00
2022-11-26T18:22:27.139Z,101330.31
2022-11-26T18:24:57.613Z,101329.06
2022-11-26T18:27:48.546Z,101327.09
2022-11-26T18:30:18.757Z,101328.53
2022-11-26T18:32:57.063Z,101328.53
2022-11-26T18:35:29.157Z,101346.63
2022-11-26T18:38:02.862Z,101340.75
2022-11-26T18:40:36.927Z,101343.59
2022-11-26T18:43:10.181Z,101344.53
2022-11-26T18:45:38.703Z,101346.44
2022-11-26T18:48:13.191Z,101342.50
2022-11-26T18:51:08.463Z,101337.63
2022-11-26T18:53:39.702Z,101347.59
2022-11-26T18:56:19.165Z,101350.13
2022-11-26T18:58:53.895Z,101342.56
2022-11-26T19:01:33.303Z,101335.69
2022-11-26T19:04:13.245Z,101332.81
2022-11-26T19:06:55.000Z,101329.16
2022-11-26T19:09:39.004Z,101332.38
2022-11-26T19:12:08.147Z,101329.31
2022-11-26T19:14:38.671Z,101329.06
2022-11-26T19:17:06.245Z,101325.03
2022-11-26T19:19:47.005Z,101333.28
2022-11-26T19:22:19.372Z,101325.34
2022-11-26T19:24:53.617Z,101326.28
2022-11-26T19:30:29.842Z,101305.69
2022-11-26T19:33:03.226Z,101302.28
2022-11-26T19:35:35.397Z,101298.31
2022-11-26T19:38:05.949Z,101301.09
2022-11-26T19:40:41.934Z,101323.66
2022-11-26T19:43:20.070Z,101303.44
2022-11-26T19:45:48.641Z,101304.50
2022-11-26T19:48:25.036Z,101302.03
2022-11-26T19:51:11.258Z,101301.47
2022-11-26T19:53:44.681Z,101295.94
2022-11-26T19:56:25.525Z,101294.97
2022-11-26T19:58:59.454Z,101299.00
2022-11-26T20:01:34.999Z,101296.63
2022-11-26T20:04:06.812Z,101297.75
2022-11-26T20:06:43.278Z,101287.09
2022-11-26T20:09:17.162Z,101299.25
2022-11-26T20:11:57.731Z,101294.56
2022-11-26T20:14:30.649Z,101295.19
2022-11-26T20:17:03.521Z,101307.50
2022-11-26T20:19:36.632Z,101305.84
2022-11-26T20:22:09.259Z,101306.16
2022-11-26T20:24:44.072Z,101299.91
2022-11-26T20:27:19.818Z,101316.03
2022-11-26T20:30:05.451Z,101312.53
2022-11-26T20:32:37.264Z,101304.72
2022-11-26T20:35:09.255Z,101308.31
2022-11-26T20:37:42.383Z,101309.13
2022-11-26T20:40:13.601Z,101308.22
2022-11-26T20:42:47.210Z,101315.88
2022-11-26T20:45:30.190Z,101326.44
2022-11-26T20:48:05.934Z,101323.91
2022-11-26T20:50:38.235Z,101324.06
2022-11-26T20:53:20.582Z,101330.41
2022-11-26T20:56:04.276Z,101319.03
2022-11-26T20:58:38.281Z,101322.34
2022-11-26T21:01:37.200Z,101309.72
2022-11-26T21:04:08.501Z,101299.19
2022-11-26T21:09:26.322Z,101297.78
2022-11-26T21:11:58.147Z,101294.22
2022-11-26T21:14:30.324Z,101294.22
2022-11-26T21:17:22.001Z,101291.34
2022-11-26T21:19:52.519Z,101292.72
2022-11-26T21:22:22.379Z,101301.63
2022-11-26T21:24:52.050Z,101301.28
2022-11-26T21:27:36.836Z,101289.59
2022-11-26T21:30:07.951Z,101289.69
2022-11-26T21:32:49.329Z,101288.66
2022-11-26T21:35:29.346Z,101293.50
2022-11-26T21:38:02.672Z,101292.53
2022-11-26T21:40:31.862Z,101295.56
2022-11-26T21:43:06.627Z,101299.38
2022-11-26T21:45:37.092Z,101289.84
2022-11-26T21:48:06.340Z,101291.34
2022-11-26T21:50:35.873Z,101294.75
2022-11-26T21:53:07.923Z,101296.81
2022-11-26T21:55:50.444Z,101289.03
2022-11-26T21:58:18.892Z,101298.22
2022-11-26T22:00:49.463Z,101273.28
2022-11-26T22:03:16.766Z,101283.06
2022-11-26T22:05:46.225Z,101285.03
2022-11-26T22:08:21.065Z,101276.13
2022-11-26T22:10:53.592Z,101276.44
2022-11-26T22:13:31.221Z,101283.28
2022-11-26T22:16:02.054Z,101286.28
2022-11-26T22:18:29.565Z,101287.13
2022-11-26T22:20:59.560Z,101287.75
2022-11-26T22:23:32.735Z,101283.41
2022-11-26T22:26:06.822Z,101299.06
2022-11-26T22:28:35.154Z,101305.91
2022-11-26T22:31:41.368Z,101298.13
2022-11-26T22:34:12.600Z,101307.91
2022-11-26T22:36:40.716Z,101314.00
2022-11-26T22:39:15.921Z,101317.22
2022-11-26T22:41:46.353Z,101315.31
2022-11-26T22:44:14.621Z,101306.28
2022-11-26T22:46:42.932Z,101305.50
2022-11-26T22:49:17.847Z,101313.50
2022-11-26T22:51:48.404Z,101306.34
2022-11-26T22:54:31.694Z,101320.53
2022-11-26T22:57:00.526Z,101317.97
2022-11-26T22:59:32.845Z,101309.78
2022-11-26T23:02:01.553Z,101305.66
2022-11-26T23:04:28.345Z,101300.94
2022-11-26T23:07:08.714Z,101301.38
2022-11-26T23:09:47.100Z,101290.22
2022-11-26T23:12:14.306Z,101300.78
2022-11-26T23:14:49.259Z,101290.13
2022-11-26T23:17:23.438Z,101271.38
2022-11-26T23:19:55.709Z,101265.25
2022-11-26T23:22:26.883Z,101251.06
2022-11-26T23:25:03.139Z,101252.88
2022-11-26T23:27:31.741Z,101244.41
2022-11-26T23:30:01.214Z,101241.25
2022-11-26T23:32:32.432Z,101237.88
2022-11-26T23:34:59.402Z,101226.69
2022-11-26T23:37:29.295Z,101231.59
2022-11-26T23:40:01.012Z,101230.09
2022-11-26T23:42:30.152Z,101221.91
2022-11-26T23:45:03.800Z,101204.91
2022-11-26T23:47:37.198Z,101197.72
2022-11-26T23:50:10.745Z,101185.06
2022-11-26T23:52:41.991Z,101186.91
2022-11-26T23:55:09.434Z,101173.09
2022-11-26T23:57:36.896Z,101173.09
